Terminal Aerodrome Forecast
Issued by NWS

Home | Current Version | Previous Version | Graphics & Text | Print | Product List | Glossary On
Versions: 1 2 3 4 5 6 7 8 9 10 11 12 13 14 15 16 17
000
FTUS43 KTOP 291100
TAFFOE
TAF
KFOE 291126Z 2912/3012 16006KT P6SM VCTS BKN060CB BKN100
      TEMPO 2912/2915 6SM -TSRA BKN050CB OVC100
     FM300200 31003KT P6SM SKC=

USA.gov is the U.S. government's official web portal to all federal, state and local government web resources and services.